Main page
METAR-TAF:

METAR-TAF

Airports :

Samedan Airport

St. Moritz, Switzerland

latitude: 46-32-03N, longitude: 9-53-03E, elevation: 1707 m

Current weather observation

The report was made 7 minutes ago, at 18:50 UTC
Wind 7 kt from the North
Temperature 14°C
Humidity 51%
Pressure 1022 hPa
Visibility 10 km or more
Scattered clouds at a height of 7000 ft

METAR: LSZS 251850Z AUTO 36007KT 9999 SCT070 14/04 Q1022

Time: 20:57 (18:57 UTC)

Forecast

The report was made 31 hours and 32 minutes ago, at 11:25 UTC
Forecast valid from 24 at 12 UTC to 24 at 21 UTC
Wind 12 kt from the Southwest
Visibility 10 km or more
Scattered clouds at a height of 6000 ft
Probability 40% :
Temporary
from 24 at 12 UTC to 24 at 19 UTC
Scattered clouds at a height of 5000 ft, Towering cumulus.
rain showers
Becoming
from 24 at 17 UTC to 24 at 19 UTC
Wind 3 kt from variable directions

TAF: LSZS 241125Z 2412/2421 22012KT 9999 SCT060 TX17/2414Z PROB40 TEMPO 2412/2419 SHRA SCT050TCU BECMG 2417/2419 VRB03KT

Weather observations and forecasts of more than 4000 airports (METAR and TAF reports).

The available stations are represented by yellow and red dots on the map.

Hover mouse over dot to see the name of the station.

Then click to see weather observations and forecasts.

To change the map : click on the green buttons with a black cross to zoom in, on the green button with a dash to zoom out, or on the green arrows for adjacent maps.


METAR-TAF: